Terminal Aerodrome Forecast
Issued by NWS

Current Version | Previous Version | Graphics & Text | Print | Product List | Glossary On
Versions: 1 2 3 4 5 6 7 8 9 10 11 12 13 14 15 16 17 18 19 20 21 22 23 24 25 26 27 28 29 30
335
FTUS41 KRLX 270551
TAFCKB
TAF
KCKB 270551Z 2706/2806 15004KT P6SM SKC
     FM271500 19008KT P6SM SCT250
     FM271800 21010KT P6SM BKN060
     FM272000 22009KT 5SM SHRA VCTS BKN050CB
     FM272100 22008KT 2SM SHRA VCTS BKN050CB
     FM272200 22008KT P6SM SHRA BKN040
     FM272300 23007KT P6SM BKN040=

USA.gov is the U.S. government's official web portal to all federal, state and local government web resources and services.